Terminal Aerodrome Forecast
Issued by NWS Wilmington, OH

Current Version | Previous Version | Text Only | Print | Product List | Glossary Off
Versions: 1 2 3 4 5 6 7 8 9 10 11 12 13 14 15 16 17 18 19 20 21 22 23

000
FTUS41 KILN 241100
TAFCVG
TAF
KCVG 241134Z 2412/2518 00000KT P6SM BKN035 BKN200
     FM241400 06007KT P6SM SCT040 BKN200
     FM250000 12004KT P6SM BKN200
     FM250600 VRB03KT 3SM BR SCT200
     FM251300 12005KT P6SM SCT060=

USA.gov is the U.S. government's official web portal to all federal, state and local government web resources and services.